sensor_id;sensor_type;location;lat;lon;timestamp;pressure;altitude;pressure_sealevel;temperature;humidity
35307;BME280;21420;52.196;21.416;2023-07-13T00:01:52;99805.86;;;17.82;62.27
35307;BME280;21420;52.196;21.416;2023-07-13T00:04:21;99808.93;;;17.79;62.26
35307;BME280;21420;52.196;21.416;2023-07-13T00:06:49;99812.41;;;17.76;62.45
35307;BME280;21420;52.196;21.416;2023-07-13T00:09:18;99816.06;;;17.72;62.33
35307;BME280;21420;52.196;21.416;2023-07-13T00:11:45;99813.85;;;17.68;62.40
35307;BME280;21420;52.196;21.416;2023-07-13T00:14:15;99812.20;;;17.64;62.38
35307;BME280;21420;52.196;21.416;2023-07-13T00:16:42;99809.83;;;17.61;62.48
35307;BME280;21420;52.196;21.416;2023-07-13T00:19:13;99805.40;;;17.58;62.52
35307;BME280;21420;52.196;21.416;2023-07-13T00:21:40;99800.58;;;17.58;62.52
35307;BME280;21420;52.196;21.416;2023-07-13T00:24:11;99802.16;;;17.60;62.72
35307;BME280;21420;52.196;21.416;2023-07-13T00:26:41;99803.66;;;17.64;62.78
35307;BME280;21420;52.196;21.416;2023-07-13T00:29:12;99799.70;;;17.67;62.84
35307;BME280;21420;52.196;21.416;2023-07-13T00:31:38;99800.96;;;17.67;62.79
35307;BME280;21420;52.196;21.416;2023-07-13T00:34:05;99798.75;;;17.67;63.04
35307;BME280;21420;52.196;21.416;2023-07-13T00:36:32;99798.98;;;17.66;62.84
35307;BME280;21420;52.196;21.416;2023-07-13T00:38:59;99797.55;;;17.64;62.71
35307;BME280;21420;52.196;21.416;2023-07-13T00:41:26;99796.63;;;17.60;62.85
35307;BME280;21420;52.196;21.416;2023-07-13T00:43:52;99792.91;;;17.57;62.96
35307;BME280;21420;52.196;21.416;2023-07-13T00:46:21;99794.25;;;17.57;63.01
35307;BME280;21420;52.196;21.416;2023-07-13T00:48:50;99793.14;;;17.58;63.14
35307;BME280;21420;52.196;21.416;2023-07-13T00:51:20;99791.80;;;17.57;63.14
35307;BME280;21420;52.196;21.416;2023-07-13T00:53:49;99786.11;;;17.56;63.17
35307;BME280;21420;52.196;21.416;2023-07-13T00:56:17;99784.69;;;17.57;63.04
35307;BME280;21420;52.196;21.416;2023-07-13T00:58:44;99788.48;;;17.58;62.97
35307;BME280;21420;52.196;21.416;2023-07-13T01:01:11;99788.17;;;17.57;63.07
35307;BME280;21420;52.196;21.416;2023-07-13T01:03:40;99784.86;;;17.51;62.84
35307;BME280;21420;52.196;21.416;2023-07-13T01:06:07;99788.56;;;17.46;63.02
35307;BME280;21420;52.196;21.416;2023-07-13T01:08:35;99784.61;;;17.46;63.17
35307;BME280;21420;52.196;21.416;2023-07-13T01:11:02;99784.84;;;17.46;63.09
35307;BME280;21420;52.196;21.416;2023-07-13T01:13:28;99786.52;;;17.44;63.22
35307;BME280;21420;52.196;21.416;2023-07-13T01:15:58;99791.83;;;17.43;63.22
35307;BME280;21420;52.196;21.416;2023-07-13T01:18:27;99796.17;;;17.41;63.31
35307;BME280;21420;52.196;21.416;2023-07-13T01:21:00;99804.30;;;17.37;63.26
35307;BME280;21420;52.196;21.416;2023-07-13T01:23:28;99808.27;;;17.29;63.19
35307;BME280;21420;52.196;21.416;2023-07-13T01:25:56;99815.21;;;17.22;63.03
35307;BME280;21420;52.196;21.416;2023-07-13T01:28:25;99816.39;;;17.06;62.88
35307;BME280;21420;52.196;21.416;2023-07-13T01:30:55;99818.74;;;16.96;63.16
35307;BME280;21420;52.196;21.416;2023-07-13T01:33:22;99818.34;;;16.95;63.29
35307;BME280;21420;52.196;21.416;2023-07-13T01:35:49;99817.40;;;16.95;63.36
35307;BME280;21420;52.196;21.416;2023-07-13T01:38:18;99814.16;;;16.97;63.46
35307;BME280;21420;52.196;21.416;2023-07-13T01:40:45;99815.90;;;16.99;63.64
35307;BME280;21420;52.196;21.416;2023-07-13T01:43:12;99815.52;;;17.01;63.73
35307;BME280;21420;52.196;21.416;2023-07-13T01:45:39;99821.59;;;17.00;63.71
35307;BME280;21420;52.196;21.416;2023-07-13T01:48:06;99824.52;;;16.99;63.75
35307;BME280;21420;52.196;21.416;2023-07-13T01:50:36;99825.63;;;16.95;63.60
35307;BME280;21420;52.196;21.416;2023-07-13T01:53:03;99835.09;;;16.92;63.46
35307;BME280;21420;52.196;21.416;2023-07-13T01:55:31;99838.73;;;16.93;63.67
35307;BME280;21420;52.196;21.416;2023-07-13T01:57:58;99834.07;;;16.95;63.87
35307;BME280;21420;52.196;21.416;2023-07-13T02:00:25;99828.70;;;16.97;64.04
35307;BME280;21420;52.196;21.416;2023-07-13T02:02:53;99826.41;;;16.98;63.98
35307;BME280;21420;52.196;21.416;2023-07-13T02:05:20;99830.36;;;16.98;63.86
35307;BME280;21420;52.196;21.416;2023-07-13T02:07:47;99824.03;;;16.97;63.80
35307;BME280;21420;52.196;21.416;2023-07-13T02:10:14;99822.85;;;16.97;63.93
35307;BME280;21420;52.196;21.416;2023-07-13T02:12:42;99824.04;;;16.97;64.01
35307;BME280;21420;52.196;21.416;2023-07-13T02:15:09;99827.99;;;16.98;64.14
35307;BME280;21420;52.196;21.416;2023-07-13T02:17:36;99834.16;;;16.98;64.03
35307;BME280;21420;52.196;21.416;2023-07-13T02:20:04;99831.08;;;16.97;63.75
35307;BME280;21420;52.196;21.416;2023-07-13T02:22:31;99833.52;;;16.99;63.93
35307;BME280;21420;52.196;21.416;2023-07-13T02:24:58;99842.84;;;17.00;64.13
35307;BME280;21420;52.196;21.416;2023-07-13T02:27:25;99850.99;;;17.02;64.16
35307;BME280;21420;52.196;21.416;2023-07-13T02:29:52;99856.14;;;17.04;64.00
35307;BME280;21420;52.196;21.416;2023-07-13T02:32:20;99849.73;;;17.06;63.81
35307;BME280;21420;52.196;21.416;2023-07-13T02:34:47;99845.63;;;17.08;63.89
35307;BME280;21420;52.196;21.416;2023-07-13T02:37:14;99849.34;;;17.11;63.86
35307;BME280;21420;52.196;21.416;2023-07-13T02:39:40;99848.55;;;17.13;63.97
35307;BME280;21420;52.196;21.416;2023-07-13T02:42:08;99845.64;;;17.15;63.91
35307;BME280;21420;52.196;21.416;2023-07-13T02:44:36;99851.57;;;17.19;63.94
35307;BME280;21420;52.196;21.416;2023-07-13T02:47:03;99853.15;;;17.21;64.05
35307;BME280;21420;52.196;21.416;2023-07-13T02:49:30;99850.86;;;17.22;64.03
35307;BME280;21420;52.196;21.416;2023-07-13T02:51:57;99851.17;;;17.23;63.86
35307;BME280;21420;52.196;21.416;2023-07-13T02:56:10;99843.19;;;17.26;64.25
35307;BME280;21420;52.196;21.416;2023-07-13T02:58:40;99843.11;;;17.24;64.18
35307;BME280;21420;52.196;21.416;2023-07-13T03:01:08;99840.11;;;17.23;64.21
35307;BME280;21420;52.196;21.416;2023-07-13T03:03:36;99837.34;;;17.23;64.36
35307;BME280;21420;52.196;21.416;2023-07-13T03:06:04;99837.73;;;17.22;64.28
35307;BME280;21420;52.196;21.416;2023-07-13T03:08:36;99841.70;;;17.21;64.30
35307;BME280;21420;52.196;21.416;2023-07-13T03:11:15;99841.20;;;17.19;64.42
35307;BME280;21420;52.196;21.416;2023-07-13T03:13:43;99841.61;;;17.16;64.39
35307;BME280;21420;52.196;21.416;2023-07-13T03:16:14;99838.77;;;17.14;64.34
35307;BME280;21420;52.196;21.416;2023-07-13T03:18:46;99836.86;;;17.13;64.36
35307;BME280;21420;52.196;21.416;2023-07-13T03:21:14;99840.49;;;17.13;64.22
35307;BME280;21420;52.196;21.416;2023-07-13T03:23:41;99844.68;;;17.12;64.37
35307;BME280;21420;52.196;21.416;2023-07-13T03:26:11;99844.05;;;17.12;64.37
35307;BME280;21420;52.196;21.416;2023-07-13T03:28:40;99843.58;;;17.11;64.38
35307;BME280;21420;52.196;21.416;2023-07-13T03:31:17;99841.83;;;17.07;64.35
35307;BME280;21420;52.196;21.416;2023-07-13T03:33:44;99840.80;;;17.05;64.39
35307;BME280;21420;52.196;21.416;2023-07-13T03:36:21;99840.95;;;17.02;64.38
35307;BME280;21420;52.196;21.416;2023-07-13T03:38:51;99842.46;;;17.03;64.25
35307;BME280;21420;52.196;21.416;2023-07-13T03:41:20;99839.54;;;17.04;64.30
35307;BME280;21420;52.196;21.416;2023-07-13T03:43:48;99836.94;;;17.10;64.49
35307;BME280;21420;52.196;21.416;2023-07-13T03:46:16;99837.02;;;17.17;64.69
35307;BME280;21420;52.196;21.416;2023-07-13T03:48:45;99839.88;;;17.25;64.82
35307;BME280;21420;52.196;21.416;2023-07-13T03:51:14;99840.20;;;17.31;64.75
35307;BME280;21420;52.196;21.416;2023-07-13T03:53:43;99836.39;;;17.34;64.58
35307;BME280;21420;52.196;21.416;2023-07-13T03:56:11;99833.09;;;17.38;64.71
35307;BME280;21420;52.196;21.416;2023-07-13T03:58:41;99828.11;;;17.45;64.94
35307;BME280;21420;52.196;21.416;2023-07-13T04:01:15;99825.17;;;17.53;64.66
35307;BME280;21420;52.196;21.416;2023-07-13T04:03:43;99820.66;;;17.60;64.81
35307;BME280;21420;52.196;21.416;2023-07-13T04:06:23;99820.26;;;17.67;64.93
35307;BME280;21420;52.196;21.416;2023-07-13T04:08:53;99817.95;;;17.76;64.82
35307;BME280;21420;52.196;21.416;2023-07-13T04:11:22;99814.73;;;17.85;64.92
35307;BME280;21420;52.196;21.416;2023-07-13T04:13:50;99817.23;;;17.94;65.01
35307;BME280;21420;52.196;21.416;2023-07-13T04:16:18;99820.29;;;18.05;64.86
35307;BME280;21420;52.196;21.416;2023-07-13T04:18:46;99825.64;;;18.15;64.90
35307;BME280;21420;52.196;21.416;2023-07-13T04:21:14;99833.36;;;18.24;65.10
35307;BME280;21420;52.196;21.416;2023-07-13T04:23:42;99838.59;;;18.27;64.78
35307;BME280;21420;52.196;21.416;2023-07-13T04:26:09;99842.86;;;18.28;64.60
35307;BME280;21420;52.196;21.416;2023-07-13T04:28:36;99848.45;;;18.35;64.61
35307;BME280;21420;52.196;21.416;2023-07-13T04:31:03;99857.59;;;18.45;64.88
35307;BME280;21420;52.196;21.416;2023-07-13T04:33:30;99866.42;;;18.56;64.85
35307;BME280;21420;52.196;21.416;2023-07-13T04:35:57;99868.52;;;18.66;65.10
35307;BME280;21420;52.196;21.416;2023-07-13T04:38:29;99874.27;;;18.81;65.08
35307;BME280;21420;52.196;21.416;2023-07-13T04:41:00;99874.34;;;18.96;65.21
35307;BME280;21420;52.196;21.416;2023-07-13T04:43:28;99871.02;;;19.09;65.02
35307;BME280;21420;52.196;21.416;2023-07-13T04:45:55;99870.67;;;19.23;65.12
35307;BME280;21420;52.196;21.416;2023-07-13T04:48:23;99870.64;;;19.40;65.18
35307;BME280;21420;52.196;21.416;2023-07-13T04:50:58;99877.21;;;19.63;65.22
35307;BME280;21420;52.196;21.416;2023-07-13T04:53:26;99881.69;;;19.88;65.31
35307;BME280;21420;52.196;21.416;2023-07-13T04:55:53;99887.40;;;20.13;65.29
35307;BME280;21420;52.196;21.416;2023-07-13T04:58:20;99893.52;;;20.41;65.44
35307;BME280;21420;52.196;21.416;2023-07-13T05:00:48;99896.56;;;20.69;65.29
35307;BME280;21420;52.196;21.416;2023-07-13T05:03:15;99898.52;;;20.95;65.24
35307;BME280;21420;52.196;21.416;2023-07-13T05:05:42;99896.05;;;21.18;65.16
35307;BME280;21420;52.196;21.416;2023-07-13T05:08:09;99891.73;;;21.32;64.97
35307;BME280;21420;52.196;21.416;2023-07-13T05:10:36;99892.81;;;21.45;64.96
35307;BME280;21420;52.196;21.416;2023-07-13T05:13:03;99894.35;;;21.54;64.78
35307;BME280;21420;52.196;21.416;2023-07-13T05:15:29;99892.20;;;21.64;64.74
35307;BME280;21420;52.196;21.416;2023-07-13T05:17:56;99891.75;;;21.76;64.74
35307;BME280;21420;52.196;21.416;2023-07-13T05:20:23;99888.70;;;21.87;64.80
35307;BME280;21420;52.196;21.416;2023-07-13T05:22:50;99892.06;;;21.95;64.69
35307;BME280;21420;52.196;21.416;2023-07-13T05:25:17;99894.59;;;22.01;64.49
35307;BME280;21420;52.196;21.416;2023-07-13T05:27:47;99894.23;;;22.07;64.42
35307;BME280;21420;52.196;21.416;2023-07-13T05:30:15;99902.42;;;22.17;64.37
35307;BME280;21420;52.196;21.416;2023-07-13T05:32:42;99907.14;;;22.26;64.35
35307;BME280;21420;52.196;21.416;2023-07-13T05:35:08;99905.64;;;22.34;64.39
35307;BME280;21420;52.196;21.416;2023-07-13T05:37:37;99903.27;;;22.41;64.24
35307;BME280;21420;52.196;21.416;2023-07-13T05:40:04;99907.02;;;22.49;64.14
35307;BME280;21420;52.196;21.416;2023-07-13T05:42:31;99916.57;;;22.54;64.09
35307;BME280;21420;52.196;21.416;2023-07-13T05:44:58;99926.58;;;22.56;63.98
35307;BME280;21420;52.196;21.416;2023-07-13T05:47:25;99928.20;;;22.58;63.97
35307;BME280;21420;52.196;21.416;2023-07-13T05:49:51;99928.27;;;22.63;63.91
35307;BME280;21420;52.196;21.416;2023-07-13T05:52:18;99929.23;;;22.74;63.93
35307;BME280;21420;52.196;21.416;2023-07-13T05:54:45;99924.33;;;22.83;63.84
35307;BME280;21420;52.196;21.416;2023-07-13T05:57:12;99922.36;;;22.93;63.67
35307;BME280;21420;52.196;21.416;2023-07-13T05:59:38;99928.17;;;23.06;63.77
35307;BME280;21420;52.196;21.416;2023-07-13T06:02:05;99925.04;;;23.22;63.68
35307;BME280;21420;52.196;21.416;2023-07-13T06:05:34;99925.64;;;23.41;63.86
35307;BME280;21420;52.196;21.416;2023-07-13T06:08:03;99931.40;;;23.51;63.62
35307;BME280;21420;52.196;21.416;2023-07-13T06:10:32;99928.87;;;23.60;63.40
35307;BME280;21420;52.196;21.416;2023-07-13T06:12:59;99921.85;;;23.70;63.36
35307;BME280;21420;52.196;21.416;2023-07-13T06:15:26;99921.67;;;23.81;63.30
35307;BME280;21420;52.196;21.416;2023-07-13T06:17:53;99921.61;;;23.96;63.44
35307;BME280;21420;52.196;21.416;2023-07-13T06:20:19;99917.08;;;24.14;63.23
35307;BME280;21420;52.196;21.416;2023-07-13T06:22:46;99916.61;;;24.31;63.19
35307;BME280;21420;52.196;21.416;2023-07-13T06:25:13;99913.67;;;24.49;63.17
35307;BME280;21420;52.196;21.416;2023-07-13T06:27:40;99908.59;;;24.65;63.09
35307;BME280;21420;52.196;21.416;2023-07-13T06:30:07;99901.89;;;24.86;63.09
35307;BME280;21420;52.196;21.416;2023-07-13T06:32:33;99907.48;;;25.02;62.95
35307;BME280;21420;52.196;21.416;2023-07-13T06:35:00;99907.05;;;25.09;62.59
35307;BME280;21420;52.196;21.416;2023-07-13T06:37:27;99906.82;;;25.17;62.44
35307;BME280;21420;52.196;21.416;2023-07-13T06:39:53;99913.27;;;25.21;62.33
35307;BME280;21420;52.196;21.416;2023-07-13T06:42:21;99914.01;;;25.36;62.33
35307;BME280;21420;52.196;21.416;2023-07-13T06:44:48;99912.15;;;25.56;62.33
35307;BME280;21420;52.196;21.416;2023-07-13T06:47:15;99914.75;;;25.75;62.12
35307;BME280;21420;52.196;21.416;2023-07-13T06:49:42;99909.25;;;25.86;62.07
35307;BME280;21420;52.196;21.416;2023-07-13T06:52:08;99906.94;;;25.96;61.59
35307;BME280;21420;52.196;21.416;2023-07-13T06:54:39;99906.77;;;26.05;61.33
35307;BME280;21420;52.196;21.416;2023-07-13T06:57:05;99899.06;;;25.99;60.66
35307;BME280;21420;52.196;21.416;2023-07-13T06:59:32;99894.55;;;26.00;60.65
35307;BME280;21420;52.196;21.416;2023-07-13T07:01:59;99898.16;;;26.13;60.60
35307;BME280;21420;52.196;21.416;2023-07-13T07:04:25;99895.99;;;26.27;60.80
35307;BME280;21420;52.196;21.416;2023-07-13T07:06:52;99895.67;;;26.51;60.77
35307;BME280;21420;52.196;21.416;2023-07-13T07:09:23;99898.73;;;26.73;60.68
35307;BME280;21420;52.196;21.416;2023-07-13T07:11:50;99904.21;;;26.92;60.47
35307;BME280;21420;52.196;21.416;2023-07-13T07:14:30;99905.21;;;27.10;60.02
35307;BME280;21420;52.196;21.416;2023-07-13T07:16:57;99907.05;;;27.35;59.96
35307;BME280;21420;52.196;21.416;2023-07-13T07:19:27;99912.89;;;27.53;59.45
35307;BME280;21420;52.196;21.416;2023-07-13T07:21:54;99919.40;;;27.65;58.96
35307;BME280;21420;52.196;21.416;2023-07-13T07:24:20;99922.06;;;27.63;58.52
35307;BME280;21420;52.196;21.416;2023-07-13T07:26:47;99926.86;;;27.74;58.43
35307;BME280;21420;52.196;21.416;2023-07-13T07:29:16;99929.79;;;28.38;58.75
35307;BME280;21420;52.196;21.416;2023-07-13T07:31:46;99926.38;;;29.12;58.52
35307;BME280;21420;52.196;21.416;2023-07-13T07:34:30;99928.42;;;29.89;58.18
35307;BME280;21420;52.196;21.416;2023-07-13T07:37:00;99927.19;;;30.39;57.40
35307;BME280;21420;52.196;21.416;2023-07-13T07:39:33;99922.34;;;30.71;56.26
35307;BME280;21420;52.196;21.416;2023-07-13T07:41:59;99914.63;;;30.96;55.85
35307;BME280;21420;52.196;21.416;2023-07-13T07:44:26;99910.86;;;31.64;56.15
35307;BME280;21420;52.196;21.416;2023-07-13T07:46:55;99917.92;;;31.92;54.97
35307;BME280;21420;52.196;21.416;2023-07-13T07:49:21;99922.37;;;31.97;54.88
35307;BME280;21420;52.196;21.416;2023-07-13T07:51:49;99923.52;;;32.43;55.19
35307;BME280;21420;52.196;21.416;2023-07-13T07:54:15;99926.00;;;33.19;54.94
35307;BME280;21420;52.196;21.416;2023-07-13T07:56:55;99931.17;;;33.72;54.24
35307;BME280;21420;52.196;21.416;2023-07-13T07:59:25;99933.50;;;34.01;53.81
35307;BME280;21420;52.196;21.416;2023-07-13T08:01:54;99937.20;;;34.14;52.72
35307;BME280;21420;52.196;21.416;2023-07-13T08:04:24;99941.78;;;34.15;52.16
35307;BME280;21420;52.196;21.416;2023-07-13T08:06:53;99942.06;;;33.73;50.86
35307;BME280;21420;52.196;21.416;2023-07-13T08:09:22;99943.45;;;33.81;50.97
35307;BME280;21420;52.196;21.416;2023-07-13T08:11:49;99936.73;;;33.77;50.81
35307;BME280;21420;52.196;21.416;2023-07-13T08:14:20;99930.44;;;33.90;50.68
35307;BME280;21420;52.196;21.416;2023-07-13T08:16:47;99924.11;;;34.02;50.61
35307;BME280;21420;52.196;21.416;2023-07-13T08:19:14;99928.27;;;34.39;50.29
35307;BME280;21420;52.196;21.416;2023-07-13T08:21:40;99929.02;;;34.61;49.61
35307;BME280;21420;52.196;21.416;2023-07-13T08:24:09;99927.74;;;34.92;50.19
35307;BME280;21420;52.196;21.416;2023-07-13T08:26:36;99922.77;;;35.96;50.87
35307;BME280;21420;52.196;21.416;2023-07-13T08:29:03;99918.89;;;36.76;49.89
35307;BME280;21420;52.196;21.416;2023-07-13T08:31:30;99917.86;;;37.16;49.35
35307;BME280;21420;52.196;21.416;2023-07-13T08:33:57;99919.89;;;37.98;49.65
35307;BME280;21420;52.196;21.416;2023-07-13T08:36:25;99924.56;;;38.72;47.80
35307;BME280;21420;52.196;21.416;2023-07-13T08:38:53;99919.17;;;38.43;47.23
35307;BME280;21420;52.196;21.416;2023-07-13T08:41:20;99919.05;;;38.79;47.72
35307;BME280;21420;52.196;21.416;2023-07-13T08:43:51;99922.66;;;39.29;47.57
35307;BME280;21420;52.196;21.416;2023-07-13T08:46:26;99917.70;;;39.29;46.54
35307;BME280;21420;52.196;21.416;2023-07-13T08:49:03;99917.80;;;39.14;46.18
35307;BME280;21420;52.196;21.416;2023-07-13T08:51:56;99916.48;;;38.59;44.02
35307;BME280;21420;52.196;21.416;2023-07-13T08:57:03;99913.77;;;37.50;44.03
35307;BME280;21420;52.196;21.416;2023-07-13T08:59:36;99915.23;;;37.37;43.52
35307;BME280;21420;52.196;21.416;2023-07-13T09:04:46;99921.15;;;36.18;43.13
35307;BME280;21420;52.196;21.416;2023-07-13T09:07:42;99920.27;;;36.18;43.94
35307;BME280;21420;52.196;21.416;2023-07-13T09:10:23;99922.52;;;37.15;44.70
35307;BME280;21420;52.196;21.416;2023-07-13T09:13:19;99919.95;;;37.70;43.76
35307;BME280;21420;52.196;21.416;2023-07-13T09:15:49;99919.41;;;37.83;43.28
35307;BME280;21420;52.196;21.416;2023-07-13T09:18:30;99926.86;;;37.90;42.75
35307;BME280;21420;52.196;21.416;2023-07-13T09:23:36;99920.39;;;38.79;43.22
35307;BME280;21420;52.196;21.416;2023-07-13T09:26:19;99923.77;;;39.06;42.73
35307;BME280;21420;52.196;21.416;2023-07-13T09:28:53;99913.92;;;38.78;42.30
35307;BME280;21420;52.196;21.416;2023-07-13T09:31:34;99906.33;;;38.47;42.04
35307;BME280;21420;52.196;21.416;2023-07-13T09:34:11;99901.30;;;37.86;41.15
35307;BME280;21420;52.196;21.416;2023-07-13T09:36:38;99898.70;;;37.14;40.91
35307;BME280;21420;52.196;21.416;2023-07-13T09:39:21;99898.79;;;36.54;40.96
35307;BME280;21420;52.196;21.416;2023-07-13T09:44:36;99891.52;;;36.74;41.31
35307;BME280;21420;52.196;21.416;2023-07-13T09:47:14;99887.39;;;37.17;41.68
35307;BME280;21420;52.196;21.416;2023-07-13T09:49:42;99884.52;;;37.51;41.08
35307;BME280;21420;52.196;21.416;2023-07-13T09:52:14;99882.30;;;36.93;40.52
35307;BME280;21420;52.196;21.416;2023-07-13T09:54:46;99879.70;;;36.33;40.58
35307;BME280;21420;52.196;21.416;2023-07-13T09:57:17;99881.39;;;35.95;40.65
35307;BME280;21420;52.196;21.416;2023-07-13T09:59:47;99883.70;;;35.72;40.60
35307;BME280;21420;52.196;21.416;2023-07-13T10:02:32;99890.46;;;35.32;40.46
35307;BME280;21420;52.196;21.416;2023-07-13T10:05:03;99899.46;;;34.73;40.32
35307;BME280;21420;52.196;21.416;2023-07-13T10:07:31;99900.10;;;34.04;40.24
35307;BME280;21420;52.196;21.416;2023-07-13T10:10:01;99898.59;;;33.42;40.30
35307;BME280;21420;52.196;21.416;2023-07-13T10:12:30;99893.35;;;32.90;40.47
35307;BME280;21420;52.196;21.416;2023-07-13T10:15:02;99884.98;;;32.45;40.55
35307;BME280;21420;52.196;21.416;2023-07-13T10:17:50;99880.45;;;31.95;40.54
35307;BME280;21420;52.196;21.416;2023-07-13T10:20:18;99876.47;;;31.51;40.68
35307;BME280;21420;52.196;21.416;2023-07-13T10:23:11;99872.73;;;31.18;40.80
35307;BME280;21420;52.196;21.416;2023-07-13T10:25:42;99862.83;;;30.63;40.82
35307;BME280;21420;52.196;21.416;2023-07-13T10:30:52;99866.41;;;29.82;40.77
35307;BME280;21420;52.196;21.416;2023-07-13T10:33:21;99868.56;;;29.29;41.06
35307;BME280;21420;52.196;21.416;2023-07-13T10:36:03;99865.44;;;28.96;41.32
35307;BME280;21420;52.196;21.416;2023-07-13T10:38:33;99863.52;;;28.80;41.62
35307;BME280;21420;52.196;21.416;2023-07-13T10:41:10;99858.00;;;28.57;41.65
35307;BME280;21420;52.196;21.416;2023-07-13T10:43:42;99860.66;;;28.22;41.58
35307;BME280;21420;52.196;21.416;2023-07-13T10:46:15;99866.07;;;27.94;41.83
35307;BME280;21420;52.196;21.416;2023-07-13T10:48:45;99865.68;;;27.80;41.73
35307;BME280;21420;52.196;21.416;2023-07-13T10:51:17;99869.08;;;27.76;42.08
35307;BME280;21420;52.196;21.416;2023-07-13T10:53:44;99868.58;;;27.72;42.19
35307;BME280;21420;52.196;21.416;2023-07-13T10:56:27;99864.27;;;27.68;42.30
35307;BME280;21420;52.196;21.416;2023-07-13T10:59:09;99864.13;;;27.67;42.33
35307;BME280;21420;52.196;21.416;2023-07-13T11:01:50;99868.05;;;27.60;42.17
35307;BME280;21420;52.196;21.416;2023-07-13T11:04:20;99860.56;;;27.49;42.44
35307;BME280;21420;52.196;21.416;2023-07-13T11:06:48;99855.41;;;27.33;42.49
35307;BME280;21420;52.196;21.416;2023-07-13T11:09:36;99858.81;;;27.16;42.70
35307;BME280;21420;52.196;21.416;2023-07-13T11:12:25;99869.15;;;26.92;42.61
35307;BME280;21420;52.196;21.416;2023-07-13T11:23:06;99878.14;;;26.15;42.99
35307;BME280;21420;52.196;21.416;2023-07-13T11:25:35;99890.06;;;26.07;43.12
35307;BME280;21420;52.196;21.416;2023-07-13T11:36:06;99881.36;;;25.87;43.72
35307;BME280;21420;52.196;21.416;2023-07-13T11:41:17;99906.07;;;25.75;43.91
35307;BME280;21420;52.196;21.416;2023-07-13T11:43:49;99927.06;;;25.73;44.02
35307;BME280;21420;52.196;21.416;2023-07-13T11:46:25;99946.58;;;25.66;44.12
35307;BME280;21420;52.196;21.416;2023-07-13T11:48:53;99967.05;;;25.52;44.10
35307;BME280;21420;52.196;21.416;2023-07-13T11:51:33;99989.92;;;25.37;44.07
35307;BME280;21420;52.196;21.416;2023-07-13T11:58:00;100016.52;;;24.97;44.66
35307;BME280;21420;52.196;21.416;2023-07-13T12:00:29;100027.83;;;24.70;44.70
35307;BME280;21420;52.196;21.416;2023-07-13T12:03:01;100030.20;;;24.33;44.46
35307;BME280;21420;52.196;21.416;2023-07-13T12:05:29;100030.67;;;23.98;44.77
35307;BME280;21420;52.196;21.416;2023-07-13T12:07:58;100031.41;;;23.84;45.20
35307;BME280;21420;52.196;21.416;2023-07-13T12:10:29;100027.69;;;23.71;45.45
35307;BME280;21420;52.196;21.416;2023-07-13T12:13:04;100025.08;;;23.59;45.66
35307;BME280;21420;52.196;21.416;2023-07-13T12:15:39;100021.52;;;23.58;46.00
35307;BME280;21420;52.196;21.416;2023-07-13T12:18:23;100020.98;;;23.60;46.23
35307;BME280;21420;52.196;21.416;2023-07-13T12:20:57;100023.09;;;23.56;46.54
35307;BME280;21420;52.196;21.416;2023-07-13T12:23:29;100017.79;;;23.53;46.66
35307;BME280;21420;52.196;21.416;2023-07-13T12:26:02;100010.27;;;23.39;46.60
35307;BME280;21420;52.196;21.416;2023-07-13T12:31:08;100007.80;;;23.16;47.07
35307;BME280;21420;52.196;21.416;2023-07-13T12:33:56;100014.59;;;23.13;47.32
35307;BME280;21420;52.196;21.416;2023-07-13T12:36:24;100009.59;;;23.12;47.55
35307;BME280;21420;52.196;21.416;2023-07-13T12:38:51;100004.48;;;23.16;47.76
35307;BME280;21420;52.196;21.416;2023-07-13T12:41:18;100006.45;;;23.09;47.74
35307;BME280;21420;52.196;21.416;2023-07-13T12:43:45;100001.98;;;22.88;47.66
35307;BME280;21420;52.196;21.416;2023-07-13T12:46:20;99998.92;;;22.69;47.83
35307;BME280;21420;52.196;21.416;2023-07-13T12:48:54;100000.73;;;22.53;48.17
35307;BME280;21420;52.196;21.416;2023-07-13T12:51:41;99997.45;;;22.45;48.39
35307;BME280;21420;52.196;21.416;2023-07-13T12:54:15;99994.65;;;22.33;48.27
35307;BME280;21420;52.196;21.416;2023-07-13T12:56:44;99989.75;;;22.06;48.31
35307;BME280;21420;52.196;21.416;2023-07-13T12:59:18;99987.79;;;21.74;48.36
35307;BME280;21420;52.196;21.416;2023-07-13T13:01:46;99988.67;;;21.40;48.60
35307;BME280;21420;52.196;21.416;2023-07-13T13:04:13;99988.62;;;21.25;49.24
35307;BME280;21420;52.196;21.416;2023-07-13T13:06:40;99990.41;;;21.28;49.65
35307;BME280;21420;52.196;21.416;2023-07-13T13:09:12;99988.55;;;21.29;49.89
35307;BME280;21420;52.196;21.416;2023-07-13T13:11:40;99992.50;;;21.20;50.04
35307;BME280;21420;52.196;21.416;2023-07-13T13:14:08;100000.04;;;21.15;50.06
35307;BME280;21420;52.196;21.416;2023-07-13T13:19:16;99994.59;;;20.72;50.36
35307;BME280;21420;52.196;21.416;2023-07-13T13:21:45;99991.86;;;20.50;50.61
35307;BME280;21420;52.196;21.416;2023-07-13T13:24:15;99990.69;;;20.40;50.93
35307;BME280;21420;52.196;21.416;2023-07-13T13:26:43;99992.11;;;20.23;51.05
35307;BME280;21420;52.196;21.416;2023-07-13T13:29:19;99998.38;;;20.05;51.34
35307;BME280;21420;52.196;21.416;2023-07-13T13:31:47;100002.67;;;20.05;51.75
35307;BME280;21420;52.196;21.416;2023-07-13T13:34:16;100005.76;;;20.16;52.18
35307;BME280;21420;52.196;21.416;2023-07-13T13:36:44;100017.27;;;20.25;52.56
35307;BME280;21420;52.196;21.416;2023-07-13T13:39:24;100020.50;;;20.37;52.81
35307;BME280;21420;52.196;21.416;2023-07-13T13:41:52;100022.61;;;20.49;52.79
35307;BME280;21420;52.196;21.416;2023-07-13T13:44:21;100025.73;;;20.58;53.06
35307;BME280;21420;52.196;21.416;2023-07-13T13:46:50;100030.14;;;20.69;53.29
35307;BME280;21420;52.196;21.416;2023-07-13T13:49:23;100031.85;;;20.81;53.37